Pearce, AZ (85625)

11:13 PM MST on August 20, 2014 (GMT -0700)
North of Ironwood Rd. | Change Station
CLOSE
Current Station
Personal Weather Station
Location: Pearce, AZ
Elevation: 4365 ft
Nearby Weather Stations

Elev 4365 ft 31.95 °N, 109.88 °W | Updated 3 minutes ago

Clear
Clear
63.9 °F
Feels Like 63.9 °F
N
0.0
Wind Variable Wind from East
Gusts 3.0 mph

Today
High -- | Low -- °F
--% Chance of Precip.
Yesterday
High -- | Low -- °F
Precip. -- in
5:47 AM 6:57 PM
Waning Crescent, 16% visible
Pressure 29.91 in
Visibility 10.0 miles
Clouds Clear
Dew Point 59 °F
Humidity 85%
Rainfall 0.15 in
Snow Depth Not available.
UV 0 out of 12
Pollen 5.20 out of 12
Air Quality Not available.
Flu Activity Not available.
METAR KDUG 210556Z AUTO 09003KT 10SM CLR 19/16 A3009 RMK AO2 SLP127 T01940161 10267 20189 51011

More Conditions Fewer Conditions

Pressure 29.91 in
Visibility 10.0 miles
Clouds Clear
Dew Point 59 °F
Humidity 85%
Rainfall 0.15 in
Snow Depth Not available.
UV 0 out of 12
Pollen 5.20 out of 12
Air Quality Not available.
Flu Activity Not available.
METAR KDUG 210556Z AUTO 09003KT 10SM CLR 19/16 A3009 RMK AO2 SLP127 T01940161 10267 20189 51011

More Conditions Fewer Conditions

10-Day Weather Forecast

Almanac

Astronomy

Aug. 20, 2014 Rise Set
Actual Time 5:47 AM MST 6:57 PM MST
Civil Twilight 5:21 AM MST 7:23 PM MST
Nautical Twilight 4:51 AM MST 7:53 PM MST
Astronomical Twilight 4:20 AM MST 8:24 PM MST
Moon 1:36 AM MST (8/20) 3:39 PM MST (8/20)
Length of Visible Light 14h 01m
Length of Day
13h 10m
Tomorrow will be 1m 46s shorter.
Waning Crescent, 16% of the Moon is Illuminated
Aug 21
Waning Crescent
Aug 25
New
Sep 2
First Quarter
Sep 8
Full
Sep 15
Last Quarter

Community

WunderPhotos

Upload Photos

1,745,858 photos uploaded!

Nearby

Snow Depth

Station Depth Elevation
Hannagan Meadows 0 in 9020 ft
Wildcat 0 in 7850 ft
Beaver Head 19 in 7990 ft
Maverick Fork 0 in 9200 ft
Workman Creek 1 in 6900 ft

Earthquake Activity

City Distance Mag. Time & Date
Lordsburg, New Mexico 60 miles 3.1 9:13 PM MST
2014-08-15
Minimum magnitude displayed is 2.5.

Coastal Water Temperatures

Place Temperature
No Stations Reporting

Nearby Weather Stations